Time;durP1;ratioP1;P1;durP2;ratioP2;P2;SDS_P1;SDS_P2;PMS_P1;PMS_P2;Temp;Humidity;BMP_temperature;BMP_pressure;BME280_temperature;BME280_humidity;BME280_pressure;Samples;Min_cycle;Max_cycle;Signal;HPM_P1;HPM_P2
2023/01/10 00:01:50;;;;;;;6.77;5.93;;;3.10;99.90;;;;;;5130071;27;20471;-47
2023/01/10 00:04:17;;;;;;;6.40;5.90;;;3.20;99.90;;;;;;5123282;27;21015;-47
2023/01/10 00:06:44;;;;;;;4.50;4.00;;;3.30;99.90;;;;;;5120148;27;20453;-47
2023/01/10 00:09:11;;;;;;;4.20;3.80;;;3.30;99.90;;;;;;5120308;27;20471;-47
2023/01/10 00:14:22;;;;;;;3.20;2.10;;;3.10;99.90;;;;;;5125011;27;20471;-47
2023/01/10 00:16:51;;;;;;;3.07;2.77;;;3.10;99.90;;;;;;5130073;27;20465;-47
2023/01/10 00:19:18;;;;;;;2.37;2.17;;;3.10;99.90;;;;;;5117282;27;20481;-47
2023/01/10 00:21:44;;;;;;;2.47;2.10;;;3.10;99.90;;;;;;5123697;27;21027;-47
2023/01/10 00:24:18;;;;;;;2.43;2.23;;;3.20;99.90;;;;;;5118741;27;20550;-48
2023/01/10 00:26:49;;;;;;;2.53;2.00;;;3.30;99.90;;;;;;5114901;27;20440;-48
2023/01/10 00:29:17;;;;;;;2.10;1.90;;;2.90;99.90;;;;;;5123639;27;20447;-49
2023/01/10 00:31:44;;;;;;;2.10;1.90;;;2.80;99.90;;;;;;5122644;27;20558;-47
2023/01/10 00:34:12;;;;;;;2.00;1.80;;;2.90;99.90;;;;;;5125279;27;20980;-46
2023/01/10 00:36:39;;;;;;;2.63;2.43;;;3.00;99.90;;;;;;5117305;27;21037;-47
2023/01/10 00:39:11;;;;;;;2.70;2.10;;;2.80;99.90;;;;;;5116737;27;20857;-48
2023/01/10 00:44:22;;;;;;;2.47;1.90;;;2.80;99.90;;;;;;5122006;27;20877;-50
2023/01/10 00:46:49;;;;;;;2.73;2.53;;;2.50;99.90;;;;;;5119553;27;20931;-47
2023/01/10 00:49:18;;;;;;;2.33;2.10;;;2.60;99.90;;;;;;5130778;27;20876;-47
2023/01/10 00:51:45;;;;;;;2.50;2.30;;;2.70;99.90;;;;;;5124544;27;20480;-47
2023/01/10 00:54:14;;;;;;;2.23;2.03;;;2.90;99.90;;;;;;5127907;27;20496;-46
2023/01/10 00:56:41;;;;;;;3.03;2.80;;;2.80;99.90;;;;;;5129388;27;20560;-49
2023/01/10 00:59:08;;;;;;;2.40;2.20;;;2.70;99.90;;;;;;5128218;27;21043;-47
2023/01/10 01:01:35;;;;;;;2.90;2.20;;;2.70;99.90;;;;;;5127496;27;20473;-47
2023/01/10 01:04:02;;;;;;;2.90;2.70;;;2.70;99.90;;;;;;5124781;27;20493;-49
2023/01/10 01:06:30;;;;;;;2.47;2.27;;;2.70;99.90;;;;;;5111549;27;20490;-47
2023/01/10 01:08:57;;;;;;;2.60;2.40;;;2.80;99.90;;;;;;5126284;27;20542;-48
2023/01/10 01:11:24;;;;;;;2.67;2.47;;;2.90;99.90;;;;;;5112657;27;20925;-50
2023/01/10 01:13:51;;;;;;;3.60;2.60;;;2.80;99.90;;;;;;5123267;27;20906;-48
2023/01/10 01:16:18;;;;;;;2.40;2.20;;;2.80;99.90;;;;;;5128366;27;20471;-45
2023/01/10 01:18:45;;;;;;;3.13;2.70;;;2.70;99.90;;;;;;5129885;27;20526;-47
2023/01/10 01:21:12;;;;;;;2.40;2.20;;;2.50;99.90;;;;;;5114634;27;20961;-47
2023/01/10 01:23:41;;;;;;;2.43;2.23;;;2.40;99.90;;;;;;5112372;28;20446;-48
2023/01/10 01:26:09;;;;;;;2.70;2.50;;;2.60;99.90;;;;;;5116471;27;20531;-47
2023/01/10 01:28:37;;;;;;;2.20;2.00;;;2.50;99.90;;;;;;5129038;27;20519;-47
2023/01/10 01:31:08;;;;;;;2.90;2.67;;;2.30;99.90;;;;;;5127852;27;20445;-47
2023/01/10 01:33:35;;;;;;;2.87;2.40;;;2.20;99.90;;;;;;5125939;27;20474;-47
2023/01/10 01:36:02;;;;;;;4.17;3.87;;;2.30;99.90;;;;;;5115041;27;20474;-47
2023/01/10 01:38:29;;;;;;;5.30;4.80;;;2.30;99.90;;;;;;5120806;27;20559;-46
2023/01/10 01:40:57;;;;;;;6.13;5.53;;;2.50;99.90;;;;;;5134004;27;20867;-49
2023/01/10 01:43:26;;;;;;;5.13;3.13;;;2.60;99.90;;;;;;5131938;27;20597;-48
2023/01/10 01:45:54;;;;;;;4.57;3.43;;;2.70;99.90;;;;;;5117529;27;20490;-46
2023/01/10 01:48:32;;;;;;;5.60;4.40;;;2.80;99.90;;;;;;5127577;27;20475;-47
2023/01/10 01:51:06;;;;;;;3.60;3.30;;;2.80;99.90;;;;;;5122841;27;21340;-46
2023/01/10 01:53:37;;;;;;;2.70;2.50;;;2.90;99.90;;;;;;5119435;27;20495;-48
2023/01/10 01:56:11;;;;;;;2.50;2.30;;;2.80;99.90;;;;;;5116942;27;20475;-47
2023/01/10 01:58:44;;;;;;;3.33;2.70;;;2.70;99.90;;;;;;5132652;27;20514;-47
2023/01/10 02:01:12;;;;;;;3.10;2.80;;;2.70;99.90;;;;;;5133803;27;20476;-49
2023/01/10 02:03:42;;;;;;;3.83;2.70;;;2.70;99.90;;;;;;5132673;27;20474;-47
2023/01/10 02:06:09;;;;;;;3.97;3.30;;;2.70;99.90;;;;;;5119078;27;20956;-47
2023/01/10 02:08:37;;;;;;;3.30;3.00;;;2.70;99.90;;;;;;5111422;27;20447;-49
2023/01/10 02:11:09;;;;;;;3.37;3.07;;;2.50;99.90;;;;;;5129315;27;20471;-49
2023/01/10 02:13:41;;;;;;;4.00;3.60;;;2.60;99.90;;;;;;5131430;27;20848;-48
2023/01/10 02:16:08;;;;;;;4.73;3.17;;;2.70;99.90;;;;;;5117223;27;20884;-47
2023/01/10 02:18:35;;;;;;;3.73;3.10;;;2.80;99.90;;;;;;5123854;27;20824;-47
2023/01/10 02:21:15;;;;;;;3.53;3.17;;;2.80;99.90;;;;;;5111812;27;20527;-47
2023/01/10 02:24:28;;;;;;;3.33;3.03;;;2.70;99.90;;;;;;5129768;27;20450;-47
2023/01/10 02:27:18;;;;;;;3.43;3.23;;;2.70;99.90;;;;;;5101802;28;20798;-47
2023/01/10 02:30:09;;;;;;;5.27;4.20;;;2.60;99.90;;;;;;5112717;28;20444;-48
2023/01/10 02:32:43;;;;;;;4.23;3.83;;;2.50;99.90;;;;;;5112016;28;20472;-47
2023/01/10 02:35:23;;;;;;;4.20;3.90;;;2.60;99.90;;;;;;5162842;22;20526;-51
2023/01/10 02:37:59;;;;;;;4.80;4.27;;;2.70;99.90;;;;;;5069395;28;20520;-52
2023/01/10 02:40:33;;;;;;;3.97;3.63;;;2.90;99.90;;;;;;5070455;28;20497;-51
2023/01/10 02:43:08;;;;;;;3.67;3.37;;;3.10;99.90;;;;;;5069522;28;20524;-52
2023/01/10 02:45:41;;;;;;;4.10;3.80;;;3.00;99.90;;;;;;5068677;28;20484;-51
2023/01/10 02:48:09;;;;;;;4.03;3.67;;;2.60;99.90;;;;;;5070585;28;20884;-51
2023/01/10 02:50:52;;;;;;;5.07;4.67;;;2.30;99.90;;;;;;5070928;28;20470;-52
2023/01/10 02:53:25;;;;;;;5.17;4.77;;;2.30;99.90;;;;;;5070420;28;20441;-52
2023/01/10 02:56:24;;;;;;;4.40;4.00;;;2.40;99.90;;;;;;5070926;28;20520;-53
2023/01/10 02:59:17;;;;;;;4.93;4.40;;;2.50;99.90;;;;;;5070522;28;21035;-52
2023/01/10 03:01:55;;;;;;;5.10;4.70;;;2.50;99.90;;;;;;5067866;28;20546;-52
2023/01/10 03:04:32;;;;;;;4.60;4.10;;;2.40;99.90;;;;;;5070242;28;20444;-52
2023/01/10 03:07:17;;;;;;;4.80;4.20;;;2.30;99.90;;;;;;5068818;28;20493;-57
2023/01/10 03:09:52;;;;;;;3.80;3.50;;;2.20;99.90;;;;;;5071263;28;20445;-54
2023/01/10 03:12:24;;;;;;;4.10;3.70;;;2.20;99.90;;;;;;5070917;28;20484;-51
2023/01/10 03:14:54;;;;;;;4.90;4.50;;;2.20;99.90;;;;;;5069962;28;21005;-51
2023/01/10 03:17:23;;;;;;;4.33;3.80;;;2.10;99.90;;;;;;5070885;28;20584;-52
2023/01/10 03:19:55;;;;;;;4.10;3.80;;;2.00;99.90;;;;;;5070335;28;20558;-51
2023/01/10 03:22:24;;;;;;;3.90;3.50;;;2.00;99.90;;;;;;5070907;28;20845;-52
2023/01/10 03:24:55;;;;;;;4.20;3.70;;;2.00;99.90;;;;;;5069333;28;20480;-52
2023/01/10 03:27:27;;;;;;;4.37;4.00;;;2.20;99.90;;;;;;5070142;28;20974;-52
2023/01/10 03:30:00;;;;;;;3.93;3.53;;;2.40;99.90;;;;;;5069298;28;20555;-51
2023/01/10 03:32:29;;;;;;;5.30;4.10;;;2.40;99.90;;;;;;5068722;28;20532;-53
2023/01/10 03:34:59;;;;;;;4.73;4.33;;;2.40;99.90;;;;;;5067968;28;20548;-52
2023/01/10 03:37:34;;;;;;;4.73;4.13;;;2.20;99.90;;;;;;5068593;28;20473;-52
2023/01/10 03:40:08;;;;;;;4.17;3.77;;;2.20;99.90;;;;;;5068962;28;20538;-52
2023/01/10 03:45:35;;;;;;;5.00;3.87;;;1.90;99.90;;;;;;5069917;28;20468;-52
2023/01/10 03:48:05;;;;;;;4.93;4.43;;;1.80;99.90;;;;;;5070161;28;20452;-52
2023/01/10 03:50:35;;;;;;;8.20;5.00;;;1.90;99.90;;;;;;5070101;28;21072;-53
2023/01/10 03:53:02;;;;;;;5.67;5.07;;;1.90;99.90;;;;;;5070392;28;20981;-51
2023/01/10 03:55:29;;;;;;;5.80;5.20;;;1.90;99.90;;;;;;5069586;28;20570;-52
2023/01/10 03:57:56;;;;;;;5.17;4.70;;;2.10;99.90;;;;;;5067956;28;20538;-53
2023/01/10 04:00:24;;;;;;;5.83;5.00;;;2.20;99.90;;;;;;5068620;28;20960;-53
2023/01/10 04:02:51;;;;;;;4.90;4.50;;;2.40;99.90;;;;;;5068007;28;20484;-56
2023/01/10 04:05:18;;;;;;;4.67;4.23;;;2.50;99.90;;;;;;5067538;28;20544;-52
2023/01/10 04:07:47;;;;;;;5.47;4.97;;;2.50;99.90;;;;;;5066923;28;20933;-52
2023/01/10 04:10:15;;;;;;;4.53;4.13;;;2.40;99.90;;;;;;5068307;28;21040;-52
2023/01/10 04:12:42;;;;;;;3.80;3.50;;;2.40;99.90;;;;;;5069117;28;20484;-52
2023/01/10 04:15:10;;;;;;;5.80;4.00;;;2.40;99.90;;;;;;5068273;28;20450;-52
2023/01/10 04:17:36;;;;;;;4.03;3.63;;;2.40;99.90;;;;;;5069193;28;20555;-52
2023/01/10 04:20:04;;;;;;;4.67;4.27;;;2.00;99.90;;;;;;5069367;28;20992;-52
2023/01/10 04:22:31;;;;;;;5.47;4.80;;;1.80;99.90;;;;;;5069374;28;20527;-51
2023/01/10 04:24:59;;;;;;;5.53;5.03;;;1.70;99.90;;;;;;5067996;28;20540;-51
2023/01/10 04:27:26;;;;;;;5.37;4.83;;;1.60;99.90;;;;;;5069259;28;20468;-51
2023/01/10 04:29:53;;;;;;;6.13;5.10;;;1.60;99.90;;;;;;5069379;28;20531;-52
2023/01/10 04:32:19;;;;;;;5.80;5.17;;;1.70;99.90;;;;;;5069165;28;20445;-52
2023/01/10 04:34:46;;;;;;;5.47;4.87;;;1.70;99.90;;;;;;5068311;28;20476;-52
2023/01/10 04:37:13;;;;;;;6.00;5.37;;;1.50;99.90;;;;;;5069097;28;20519;-53
2023/01/10 04:39:40;;;;;;;6.37;5.57;;;1.50;99.90;;;;;;5069658;28;20533;-51
2023/01/10 04:42:08;;;;;;;5.90;5.10;;;1.50;99.90;;;;;;5069870;28;20532;-55
2023/01/10 04:44:35;;;;;;;7.17;5.57;;;1.50;99.90;;;;;;5066358;28;21982;-54
2023/01/10 04:47:02;;;;;;;5.77;5.17;;;1.50;99.90;;;;;;5067987;28;20873;-51
2023/01/10 04:49:29;;;;;;;5.37;4.77;;;1.60;99.90;;;;;;5067500;28;20528;-53
2023/01/10 04:51:57;;;;;;;4.63;4.20;;;1.60;99.90;;;;;;5068228;28;20447;-51
2023/01/10 04:54:24;;;;;;;5.10;4.13;;;1.60;99.90;;;;;;5066967;28;20484;-55
2023/01/10 04:56:51;;;;;;;5.90;4.93;;;1.60;99.90;;;;;;5067287;28;20555;-51
2023/01/10 04:59:19;;;;;;;5.03;3.87;;;1.50;99.90;;;;;;5065747;28;20494;-53
2023/01/10 05:01:46;;;;;;;4.80;3.77;;;1.40;99.90;;;;;;5068821;28;20540;-51
2023/01/10 05:04:13;;;;;;;6.30;5.10;;;1.50;99.90;;;;;;5067829;28;21028;-52
2023/01/10 05:06:40;;;;;;;5.93;4.70;;;1.70;99.90;;;;;;5069350;28;20527;-52
2023/01/10 05:09:07;;;;;;;3.60;3.30;;;1.70;99.90;;;;;;5067238;28;20529;-51
2023/01/10 05:11:34;;;;;;;4.93;3.90;;;1.90;99.90;;;;;;5068402;28;20536;-51
2023/01/10 05:14:01;;;;;;;3.97;3.47;;;1.90;99.90;;;;;;5068551;28;20469;-51
2023/01/10 05:16:29;;;;;;;6.43;5.83;;;2.10;99.90;;;;;;5067619;28;20927;-52
2023/01/10 05:18:56;;;;;;;7.03;6.23;;;1.90;99.90;;;;;;5068752;28;20472;-52
2023/01/10 05:21:23;;;;;;;6.67;6.07;;;1.70;99.90;;;;;;5068345;28;20528;-52
2023/01/10 05:23:50;;;;;;;6.80;6.13;;;1.60;99.90;;;;;;5067732;28;20532;-53
2023/01/10 05:26:20;;;;;;;5.43;4.93;;;1.70;99.90;;;;;;5068164;28;20537;-52
2023/01/10 05:28:47;;;;;;;5.87;5.27;;;1.50;99.90;;;;;;5068540;28;21004;-52
2023/01/10 05:31:16;;;;;;;6.10;5.33;;;1.60;99.90;;;;;;5066963;28;20442;-56
2023/01/10 05:33:46;;;;;;;7.43;6.03;;;1.50;99.90;;;;;;5066989;28;21054;-52
2023/01/10 05:36:13;;;;;;;4.80;4.30;;;1.70;99.90;;;;;;5066418;28;20480;-51
2023/01/10 05:38:40;;;;;;;5.20;4.70;;;1.60;99.90;;;;;;5067335;28;20485;-53
2023/01/10 05:41:07;;;;;;;5.10;4.70;;;1.60;99.90;;;;;;5066875;28;20811;-52
2023/01/10 05:43:34;;;;;;;6.37;5.50;;;1.50;99.90;;;;;;5066001;28;20579;-52
2023/01/10 05:46:01;;;;;;;6.53;5.03;;;1.50;99.90;;;;;;5067655;28;21126;-52
2023/01/10 05:48:28;;;;;;;4.73;4.33;;;1.70;99.90;;;;;;5068188;28;20463;-53
2023/01/10 05:50:57;;;;;;;4.90;4.40;;;1.80;99.90;;;;;;5065203;28;20544;-54
2023/01/10 05:53:24;;;;;;;5.70;5.10;;;1.80;99.90;;;;;;5066514;28;20460;-52
2023/01/10 05:55:58;;;;;;;6.20;5.53;;;2.10;99.90;;;;;;5068460;28;20551;-52
2023/01/10 05:58:26;;;;;;;6.33;5.73;;;2.30;99.90;;;;;;5066307;28;20519;-53
2023/01/10 06:00:54;;;;;;;6.90;5.60;;;2.20;99.90;;;;;;5063499;28;20466;-52
2023/01/10 06:03:21;;;;;;;7.00;6.17;;;1.80;99.90;;;;;;5057534;28;21008;-53
2023/01/10 06:05:48;;;;;;;7.40;6.63;;;1.60;99.90;;;;;;5059439;28;20494;-53
2023/01/10 06:08:16;;;;;;;9.07;7.97;;;1.50;99.90;;;;;;5055710;28;20524;-53
2023/01/10 06:10:44;;;;;;;7.93;7.20;;;1.50;99.90;;;;;;5057728;28;20489;-53
2023/01/10 06:13:11;;;;;;;6.03;5.50;;;1.50;99.90;;;;;;5046835;28;20532;-52
2023/01/10 06:15:38;;;;;;;5.80;4.70;;;1.60;99.90;;;;;;5049642;28;21216;-52
2023/01/10 06:18:05;;;;;;;4.80;4.30;;;1.60;99.90;;;;;;5057827;28;20485;-54
2023/01/10 06:20:32;;;;;;;5.17;4.27;;;1.80;99.90;;;;;;5060796;28;20534;-52
2023/01/10 06:23:01;;;;;;;9.70;7.17;;;1.90;99.90;;;;;;5066732;28;20539;-53
2023/01/10 06:25:29;;;;;;;8.73;7.50;;;2.00;99.90;;;;;;5070031;28;20709;-51
2023/01/10 06:27:56;;;;;;;8.67;7.77;;;1.90;99.90;;;;;;5063281;28;20532;-52
2023/01/10 06:30:23;;;;;;;11.47;7.90;;;1.70;99.90;;;;;;5060216;28;20862;-51
2023/01/10 06:32:50;;;;;;;10.13;8.50;;;1.70;99.90;;;;;;5055985;28;21022;-54
2023/01/10 06:35:17;;;;;;;8.73;7.80;;;1.60;99.90;;;;;;5065507;28;20488;-53
2023/01/10 06:37:44;;;;;;;10.60;8.20;;;1.40;99.90;;;;;;5067937;28;20908;-55
2023/01/10 06:40:12;;;;;;;10.73;8.00;;;1.40;99.90;;;;;;5068830;28;20531;-52
2023/01/10 06:42:41;;;;;;;9.63;8.63;;;1.40;99.90;;;;;;5067122;28;20481;-55
2023/01/10 06:45:09;;;;;;;9.13;7.60;;;1.40;99.90;;;;;;5062347;28;20469;-52
2023/01/10 06:47:36;;;;;;;9.17;7.80;;;1.60;99.90;;;;;;5058685;28;20528;-53
2023/01/10 06:50:04;;;;;;;9.30;7.87;;;1.50;99.90;;;;;;5058259;28;20483;-52
2023/01/10 06:52:31;;;;;;;10.77;8.40;;;1.50;99.90;;;;;;5069996;28;20479;-53
2023/01/10 06:54:57;;;;;;;9.03;7.90;;;1.70;99.90;;;;;;5069649;28;20472;-51
2023/01/10 06:57:24;;;;;;;8.83;7.23;;;1.80;99.90;;;;;;5068650;28;20559;-53
2023/01/10 06:59:53;;;;;;;11.77;7.33;;;1.90;99.90;;;;;;5057630;28;20521;-54
2023/01/10 07:02:20;;;;;;;8.00;6.70;;;1.90;99.90;;;;;;5064342;28;20480;-54
2023/01/10 07:04:48;;;;;;;11.10;7.93;;;1.90;99.90;;;;;;5069749;28;20502;-53
2023/01/10 07:07:15;;;;;;;8.73;6.30;;;1.70;99.90;;;;;;5068866;28;20457;-52
2023/01/10 07:09:42;;;;;;;8.97;7.70;;;1.70;99.90;;;;;;5069897;28;20473;-53
2023/01/10 07:12:09;;;;;;;10.67;8.83;;;1.70;99.90;;;;;;5069309;28;20956;-54
2023/01/10 07:14:36;;;;;;;8.70;7.73;;;1.50;99.90;;;;;;5068073;28;20517;-52
2023/01/10 07:17:04;;;;;;;8.07;6.77;;;1.60;99.90;;;;;;5069077;28;20755;-52
2023/01/10 07:19:31;;;;;;;12.07;8.87;;;1.70;99.90;;;;;;5068251;28;20543;-55
2023/01/10 07:21:58;;;;;;;10.67;8.40;;;1.60;99.90;;;;;;5069284;28;20496;-53
2023/01/10 07:24:25;;;;;;;11.53;9.77;;;1.70;99.90;;;;;;5069475;28;20532;-52
2023/01/10 07:26:55;;;;;;;9.63;8.00;;;1.90;99.90;;;;;;5070228;28;20665;-52
2023/01/10 07:29:22;;;;;;;13.20;8.50;;;2.10;99.90;;;;;;5070078;28;20482;-52
2023/01/10 07:31:49;;;;;;;11.80;10.00;;;2.20;99.90;;;;;;5069590;28;20996;-51
2023/01/10 07:34:17;;;;;;;11.93;8.90;;;2.20;99.90;;;;;;5068032;28;21137;-52
2023/01/10 07:36:44;;;;;;;14.37;11.20;;;2.10;99.90;;;;;;5069554;28;20504;-52
2023/01/10 07:39:11;;;;;;;14.80;11.80;;;2.00;99.90;;;;;;5070605;28;20955;-52
2023/01/10 07:41:38;;;;;;;17.33;11.77;;;2.10;99.90;;;;;;5069024;28;20497;-55
2023/01/10 07:44:05;;;;;;;16.03;10.07;;;2.00;99.90;;;;;;5065219;28;20474;-52
2023/01/10 07:46:32;;;;;;;12.57;9.43;;;1.70;99.90;;;;;;5062401;28;20497;-52
2023/01/10 07:48:59;;;;;;;9.93;8.30;;;1.70;99.90;;;;;;5069921;28;20937;-52
2023/01/10 07:51:27;;;;;;;10.60;8.73;;;1.60;99.90;;;;;;5070233;28;20477;-51
2023/01/10 07:53:54;;;;;;;13.37;8.80;;;1.70;99.90;;;;;;5068053;28;20480;-52
2023/01/10 07:56:21;;;;;;;15.20;10.20;;;1.90;99.90;;;;;;5068231;28;20496;-53
2023/01/10 07:58:47;;;;;;;13.70;10.00;;;2.10;99.90;;;;;;5069040;28;20567;-53
2023/01/10 08:01:14;;;;;;;12.63;9.50;;;2.20;99.90;;;;;;5069454;28;20520;-53
2023/01/10 08:03:41;;;;;;;19.07;17.03;;;2.10;99.90;;;;;;5068860;28;20579;-54
2023/01/10 08:06:10;;;;;;;13.70;11.40;;;2.00;99.90;;;;;;5067988;28;21071;-52
2023/01/10 08:08:38;;;;;;;19.00;12.77;;;1.80;99.90;;;;;;5069152;28;20465;-52
2023/01/10 08:11:06;;;;;;;9.80;8.67;;;1.70;99.90;;;;;;5069657;28;20481;-52
2023/01/10 08:13:32;;;;;;;8.13;7.27;;;1.60;99.90;;;;;;5067746;28;20448;-53
2023/01/10 08:16:04;;;;;;;8.57;6.33;;;1.80;99.90;;;;;;5069414;28;21040;-51
2023/01/10 08:18:30;;;;;;;9.17;6.40;;;1.90;99.90;;;;;;5068984;28;20767;-52
2023/01/10 08:20:57;;;;;;;9.57;8.57;;;2.10;99.90;;;;;;5069327;28;20475;-53
2023/01/10 08:23:24;;;;;;;12.00;9.50;;;2.20;99.90;;;;;;5068619;28;20523;-54
2023/01/10 08:25:54;;;;;;;14.47;11.03;;;2.30;99.90;;;;;;5068100;28;20552;-52
2023/01/10 08:28:20;;;;;;;13.90;10.30;;;2.30;99.90;;;;;;5069311;28;20437;-54
2023/01/10 08:30:54;;;;;;;15.13;12.27;;;2.30;99.90;;;;;;5067441;28;20903;-52
2023/01/10 08:33:21;;;;;;;12.50;11.00;;;2.00;99.90;;;;;;5068556;28;20441;-52
2023/01/10 08:35:48;;;;;;;9.33;8.33;;;1.80;99.90;;;;;;5132669;22;20667;-48
2023/01/10 08:38:15;;;;;;;14.57;11.30;;;1.70;99.90;;;;;;5068798;28;20530;-46
2023/01/10 08:40:42;;;;;;;16.50;13.80;;;1.50;99.90;;;;;;5069149;28;20874;-48
2023/01/10 08:43:13;;;;;;;15.00;12.20;;;1.60;99.90;;;;;;5068333;28;20547;-48
2023/01/10 08:45:41;;;;;;;17.60;12.53;;;1.60;99.90;;;;;;5068006;28;20880;-49
2023/01/10 08:48:09;;;;;;;15.67;11.23;;;1.60;99.90;;;;;;5068918;28;20508;-48
2023/01/10 08:50:37;;;;;;;13.60;11.20;;;1.70;99.90;;;;;;5069276;28;20477;-48
2023/01/10 08:53:04;;;;;;;14.27;12.23;;;1.80;99.90;;;;;;5068254;28;20460;-49
2023/01/10 08:55:34;;;;;;;10.10;8.17;;;1.90;99.90;;;;;;5068876;28;20445;-48
2023/01/10 08:58:01;;;;;;;13.00;9.97;;;1.90;99.90;;;;;;5066775;28;20481;-50
2023/01/10 09:00:30;;;;;;;12.10;9.03;;;1.90;99.90;;;;;;5068680;28;20540;-48
2023/01/10 09:02:57;;;;;;;10.30;8.50;;;2.00;99.90;;;;;;5068450;28;21003;-50
2023/01/10 09:05:25;;;;;;;10.23;8.20;;;1.90;99.90;;;;;;5067581;28;20529;-48
2023/01/10 09:07:52;;;;;;;8.87;8.00;;;2.00;99.90;;;;;;5068169;28;20440;-48
2023/01/10 09:10:20;;;;;;;10.23;7.60;;;2.00;99.90;;;;;;5063846;28;20965;-48
2023/01/10 09:12:56;;;;;;;11.13;7.90;;;1.80;99.90;;;;;;5067301;28;20544;-49
2023/01/10 09:15:24;;;;;;;9.57;8.33;;;1.90;99.90;;;;;;5065718;28;20941;-48
2023/01/10 09:17:54;;;;;;;9.27;7.73;;;2.10;99.90;;;;;;5067550;28;20572;-49
2023/01/10 09:20:23;;;;;;;10.10;8.40;;;2.20;99.90;;;;;;5066808;28;20480;-49
2023/01/10 09:22:50;;;;;;;11.60;8.73;;;2.20;99.90;;;;;;5067969;28;20477;-47
2023/01/10 09:25:17;;;;;;;9.73;7.83;;;2.20;99.90;;;;;;5067972;28;20536;-50
2023/01/10 09:27:44;;;;;;;12.23;11.00;;;2.10;99.90;;;;;;5066235;28;20504;-50
2023/01/10 09:30:12;;;;;;;8.67;7.57;;;2.20;99.90;;;;;;5049168;28;20537;-48
2023/01/10 09:32:39;;;;;;;9.13;7.40;;;2.10;99.90;;;;;;5055718;28;20445;-49
2023/01/10 09:35:07;;;;;;;9.00;7.97;;;2.00;99.90;;;;;;5067242;28;20524;-49
2023/01/10 09:37:36;;;;;;;8.97;7.73;;;2.00;99.90;;;;;;5068490;28;20575;-48
2023/01/10 09:40:05;;;;;;;14.93;11.20;;;2.00;99.90;;;;;;5067669;28;20451;-45
2023/01/10 09:42:48;;;;;;;10.50;8.43;;;2.00;99.90;;;;;;5067946;28;20444;-47
2023/01/10 09:45:19;;;;;;;9.07;7.37;;;2.00;99.90;;;;;;5067479;28;20535;-49
2023/01/10 09:47:53;;;;;;;10.20;7.10;;;2.00;99.90;;;;;;5068608;28;20551;-49
2023/01/10 09:50:29;;;;;;;8.57;7.00;;;1.90;99.90;;;;;;5068188;28;20535;-49
2023/01/10 09:53:02;;;;;;;10.80;7.67;;;2.00;99.90;;;;;;5067816;28;20535;-46
2023/01/10 09:55:32;;;;;;;9.00;7.90;;;2.00;99.90;;;;;;5067947;28;20494;-48
2023/01/10 09:58:01;;;;;;;10.40;9.43;;;2.10;99.90;;;;;;5070171;28;20503;-48
2023/01/10 10:00:36;;;;;;;8.27;6.60;;;2.10;99.90;;;;;;5071578;28;20520;-48
2023/01/10 10:03:11;;;;;;;8.83;7.73;;;2.30;99.90;;;;;;5071446;28;20527;-48
2023/01/10 10:05:39;;;;;;;9.90;6.50;;;2.20;99.90;;;;;;5070735;28;20519;-48
2023/01/10 10:08:15;;;;;;;8.50;6.87;;;2.30;99.90;;;;;;5070995;28;20445;-48
2023/01/10 10:10:55;;;;;;;7.13;6.20;;;2.20;99.90;;;;;;5068682;28;20926;-51
2023/01/10 10:13:32;;;;;;;8.30;6.03;;;2.20;99.90;;;;;;5071776;28;20452;-48
2023/01/10 10:16:07;;;;;;;8.10;7.00;;;2.30;99.90;;;;;;5072152;28;20551;-48
2023/01/10 10:18:43;;;;;;;9.23;6.87;;;2.30;99.90;;;;;;5071767;28;20516;-48
2023/01/10 10:21:20;;;;;;;7.60;6.63;;;2.30;99.90;;;;;;5070695;28;20997;-50
2023/01/10 10:24:00;;;;;;;7.53;5.80;;;2.20;99.90;;;;;;5051862;28;20542;-48
2023/01/10 10:26:33;;;;;;;9.17;6.20;;;2.30;99.90;;;;;;5057989;28;20492;-48
2023/01/10 10:29:27;;;;;;;8.93;7.87;;;2.50;99.90;;;;;;5071782;28;20437;-52
2023/01/10 10:32:10;;;;;;;12.20;9.37;;;2.50;99.90;;;;;;5063815;28;20729;-49
2023/01/10 10:34:41;;;;;;;7.47;6.30;;;2.70;99.90;;;;;;5070893;28;20532;-50
2023/01/10 10:37:17;;;;;;;7.40;6.63;;;2.70;99.90;;;;;;5070929;28;20527;-50
2023/01/10 10:39:48;;;;;;;9.57;7.03;;;2.50;99.90;;;;;;5071622;28;20569;-48
2023/01/10 10:42:17;;;;;;;7.70;6.80;;;2.50;99.90;;;;;;5071745;28;20472;-48
2023/01/10 10:44:50;;;;;;;7.80;6.93;;;2.50;99.90;;;;;;5071164;28;20468;-48
2023/01/10 10:47:19;;;;;;;7.10;5.93;;;2.50;99.90;;;;;;5071362;28;20492;-50
2023/01/10 10:49:51;;;;;;;6.03;5.40;;;2.60;99.90;;;;;;5071112;28;20474;-48
2023/01/10 10:52:24;;;;;;;6.80;6.07;;;2.70;99.90;;;;;;5071248;28;20480;-49
2023/01/10 10:54:51;;;;;;;8.40;6.83;;;2.80;99.90;;;;;;5071108;28;20448;-47
2023/01/10 10:57:20;;;;;;;6.70;5.73;;;2.90;99.90;;;;;;5070587;28;21012;-49
2023/01/10 10:59:48;;;;;;;6.57;5.33;;;3.00;99.90;;;;;;5071545;28;20524;-48
2023/01/10 11:02:27;;;;;;;7.07;5.70;;;2.90;99.90;;;;;;5070606;28;20481;-46
2023/01/10 11:04:58;;;;;;;6.50;5.73;;;2.70;99.90;;;;;;5070005;28;20448;-48
2023/01/10 11:07:32;;;;;;;8.03;6.80;;;2.80;99.90;;;;;;5068635;28;20877;-49
2023/01/10 11:10:10;;;;;;;7.20;5.80;;;2.90;99.90;;;;;;5071288;28;20449;-50
2023/01/10 11:12:40;;;;;;;7.23;5.80;;;2.90;99.90;;;;;;5071041;28;20444;-48
2023/01/10 11:15:08;;;;;;;5.10;4.70;;;2.90;99.90;;;;;;5070544;28;20532;-49
2023/01/10 11:17:39;;;;;;;7.97;4.77;;;2.90;99.90;;;;;;5070007;28;20523;-48
2023/01/10 11:20:14;;;;;;;6.00;5.40;;;3.00;99.90;;;;;;5071044;28;20560;-48
2023/01/10 11:22:47;;;;;;;9.50;7.17;;;3.10;99.90;;;;;;5070869;28;20480;-50
2023/01/10 11:25:16;;;;;;;6.63;4.97;;;3.20;99.90;;;;;;5069625;28;20438;-47
2023/01/10 11:27:48;;;;;;;8.37;6.10;;;3.30;99.90;;;;;;5070958;28;20551;-48
2023/01/10 11:30:21;;;;;;;4.83;4.33;;;3.30;99.90;;;;;;5067150;28;20438;-47
2023/01/10 11:32:53;;;;;;;4.90;4.40;;;3.20;99.90;;;;;;5066997;28;20549;-50
2023/01/10 11:35:23;;;;;;;4.97;4.20;;;3.10;99.90;;;;;;5061012;28;20445;-50
2023/01/10 11:38:01;;;;;;;6.53;4.60;;;3.30;99.90;;;;;;5070095;28;20869;-48
2023/01/10 11:40:29;;;;;;;4.60;4.17;;;3.50;99.90;;;;;;5062177;28;20472;-50
2023/01/10 11:42:57;;;;;;;6.57;4.50;;;3.40;99.90;;;;;;5058658;28;20433;-47
2023/01/10 11:45:31;;;;;;;5.30;4.80;;;3.50;99.90;;;;;;5059590;28;20442;-50
2023/01/10 11:48:08;;;;;;;6.03;5.43;;;3.40;99.90;;;;;;5059274;28;20455;-48
2023/01/10 11:50:37;;;;;;;5.47;4.97;;;3.40;99.90;;;;;;5059661;28;20866;-49
2023/01/10 11:53:07;;;;;;;4.93;4.37;;;3.50;99.90;;;;;;5056772;28;20517;-48
2023/01/10 11:55:36;;;;;;;6.20;5.60;;;3.60;99.90;;;;;;5055102;28;20674;-47
2023/01/10 11:58:06;;;;;;;7.43;6.10;;;3.50;99.90;;;;;;5049817;28;20532;-48
2023/01/10 12:00:38;;;;;;;5.97;5.37;;;3.50;99.90;;;;;;5050374;28;20529;-49
2023/01/10 12:03:16;;;;;;;4.27;3.50;;;3.60;99.90;;;;;;5049657;28;20526;-50
2023/01/10 12:05:51;;;;;;;6.20;3.57;;;3.60;99.90;;;;;;5048899;28;20490;-49
2023/01/10 12:08:30;;;;;;;3.40;3.00;;;3.60;99.90;;;;;;5049655;28;20443;-49
2023/01/10 12:11:03;;;;;;;3.80;3.13;;;3.70;99.90;;;;;;5064525;28;20451;-49
2023/01/10 12:13:42;;;;;;;5.40;4.00;;;3.80;99.90;;;;;;5054102;28;20483;-48
2023/01/10 12:16:17;;;;;;;3.80;3.50;;;3.90;99.90;;;;;;5049247;28;20890;-51
2023/01/10 12:18:44;;;;;;;5.30;3.70;;;4.00;99.90;;;;;;5054747;28;20561;-49
2023/01/10 12:21:14;;;;;;;3.87;3.47;;;4.00;99.90;;;;;;5070161;28;20533;-51
2023/01/10 12:23:44;;;;;;;4.67;3.33;;;4.00;99.90;;;;;;5070094;28;20476;-51
2023/01/10 12:26:13;;;;;;;3.50;3.10;;;4.10;99.90;;;;;;5070588;28;20496;-51
2023/01/10 12:28:43;;;;;;;3.00;2.70;;;4.10;99.90;;;;;;5070489;28;20442;-49
2023/01/10 12:31:14;;;;;;;4.93;4.23;;;4.20;99.90;;;;;;5070687;28;20497;-49
2023/01/10 12:33:46;;;;;;;4.10;3.40;;;4.30;99.90;;;;;;5070154;28;20454;-49
2023/01/10 12:36:25;;;;;;;3.40;3.10;;;4.30;99.90;;;;;;5070416;28;21010;-48
2023/01/10 12:39:03;;;;;;;3.97;3.33;;;4.30;99.90;;;;;;5070757;28;20579;-49
2023/01/10 12:44:26;;;;;;;2.33;2.13;;;4.20;99.90;;;;;;5069308;28;20818;-48
2023/01/10 12:46:58;;;;;;;3.63;3.30;;;4.00;99.90;;;;;;5070208;28;20550;-48
2023/01/10 12:49:28;;;;;;;2.63;2.13;;;3.90;99.90;;;;;;5069364;28;20524;-50
2023/01/10 12:52:01;;;;;;;1.27;1.17;;;3.90;99.90;;;;;;5069589;28;20527;-51
2023/01/10 12:54:30;;;;;;;2.13;1.50;;;3.80;99.90;;;;;;5070115;28;20541;-48
2023/01/10 12:57:01;;;;;;;1.70;1.33;;;3.70;99.90;;;;;;5070420;28;20495;-50
2023/01/10 12:59:36;;;;;;;2.13;1.53;;;3.80;99.90;;;;;;5069603;28;20597;-49
2023/01/10 13:02:06;;;;;;;1.73;1.57;;;3.80;99.90;;;;;;5070475;28;20474;-48
2023/01/10 13:04:37;;;;;;;1.70;1.60;;;3.90;99.90;;;;;;5069128;28;20445;-48
2023/01/10 13:07:05;;;;;;;1.80;1.27;;;3.90;99.90;;;;;;5070507;28;20461;-48
2023/01/10 13:09:33;;;;;;;3.13;2.20;;;4.00;99.90;;;;;;5070464;28;20473;-48
2023/01/10 13:12:07;;;;;;;12.80;6.40;;;3.90;99.90;;;;;;5069580;28;20480;-50
2023/01/10 13:14:39;;;;;;;5.87;4.27;;;4.00;99.90;;;;;;5068292;28;20477;-48
2023/01/10 13:17:25;;;;;;;4.80;3.57;;;4.00;99.90;;;;;;5070141;28;20498;-48
2023/01/10 13:20:26;;;;;;;3.70;3.30;;;3.90;99.90;;;;;;5050311;28;20479;-48
2023/01/10 13:22:55;;;;;;;3.60;3.30;;;4.00;99.90;;;;;;5062135;28;20500;-48